Time;durP1;ratioP1;P1;durP2;ratioP2;P2;SDS_P1;SDS_P2;PMS_P1;PMS_P2;Temp;Humidity;BMP_temperature;BMP_pressure;BME280_temperature;BME280_humidity;BME280_pressure;Samples;Min_cycle;Max_cycle;Signal;HPM_P1;HPM_P2
2021/12/30 00:02:19;;;;;;;34.33;6.60;;;17.60;61.40;;;;;;5119042;28;20464;-79
2021/12/30 00:04:47;;;;;;;30.07;5.90;;;17.50;61.00;;;;;;5122036;28;20460;-79
2021/12/30 00:07:15;;;;;;;20.53;5.87;;;17.50;61.00;;;;;;5119932;28;20488;-80
2021/12/30 00:09:43;;;;;;;21.23;5.80;;;17.50;60.80;;;;;;5106045;28;20536;-79
2021/12/30 00:12:12;;;;;;;22.53;5.57;;;17.50;60.80;;;;;;5109965;28;20443;-79
2021/12/30 00:14:40;;;;;;;23.00;5.60;;;17.40;60.60;;;;;;5112130;28;20468;-79
2021/12/30 00:17:08;;;;;;;24.00;5.20;;;17.40;60.50;;;;;;5118663;28;20480;-79
2021/12/30 00:19:36;;;;;;;14.83;5.33;;;17.40;60.40;;;;;;5099093;28;20467;-79
2021/12/30 00:22:04;;;;;;;19.13;5.20;;;17.40;60.30;;;;;;5108530;28;20467;-80
2021/12/30 00:24:32;;;;;;;22.00;5.90;;;17.40;60.20;;;;;;5111918;28;20465;-79
2021/12/30 00:27:00;;;;;;;17.00;5.23;;;17.40;60.30;;;;;;5108118;28;20496;-79
2021/12/30 00:29:29;;;;;;;19.70;5.63;;;17.40;60.10;;;;;;5113356;28;20472;-79
2021/12/30 00:31:57;;;;;;;20.70;5.77;;;17.40;60.10;;;;;;5119635;28;20958;-79
2021/12/30 00:34:25;;;;;;;31.17;5.23;;;17.30;59.90;;;;;;5121749;28;20483;-79
2021/12/30 00:36:53;;;;;;;22.17;5.00;;;17.30;59.90;;;;;;5121483;28;20435;-79
2021/12/30 00:39:21;;;;;;;17.23;5.37;;;17.30;60.00;;;;;;5120351;28;20476;-79
2021/12/30 00:41:50;;;;;;;19.93;5.30;;;17.30;60.00;;;;;;5121558;28;20529;-79
2021/12/30 00:44:17;;;;;;;16.50;4.57;;;17.30;59.90;;;;;;5121265;28;20483;-79
2021/12/30 00:46:47;;;;;;;19.63;5.03;;;17.30;59.80;;;;;;5120357;28;20476;-79
2021/12/30 00:49:15;;;;;;;14.60;5.10;;;17.30;59.80;;;;;;5121661;28;20444;-79
2021/12/30 00:51:43;;;;;;;14.67;4.50;;;17.30;59.80;;;;;;5121229;28;20424;-79
2021/12/30 00:54:11;;;;;;;11.70;5.03;;;17.30;59.80;;;;;;5120407;28;20440;-79
2021/12/30 00:56:39;;;;;;;15.13;4.70;;;17.20;59.70;;;;;;5120628;28;20487;-79
2021/12/30 00:59:07;;;;;;;21.30;5.00;;;17.20;59.80;;;;;;5119669;28;20440;-79
2021/12/30 01:01:35;;;;;;;17.70;4.60;;;17.20;59.70;;;;;;5119239;28;20496;-81
2021/12/30 01:04:05;;;;;;;11.07;4.20;;;17.30;59.80;;;;;;5117405;28;20456;-80
2021/12/30 01:06:33;;;;;;;18.10;4.87;;;17.20;59.70;;;;;;5111835;28;20551;-80
2021/12/30 01:09:01;;;;;;;7.43;4.20;;;17.20;59.60;;;;;;5114743;28;20435;-81
2021/12/30 01:11:29;;;;;;;10.13;4.30;;;17.20;59.70;;;;;;5103188;28;20436;-82
2021/12/30 01:14:16;;;;;;;10.93;3.80;;;17.20;59.60;;;;;;5109202;28;20494;-80
2021/12/30 01:16:47;;;;;;;10.10;4.20;;;17.20;59.60;;;;;;5117261;28;20511;-80
2021/12/30 01:19:23;;;;;;;14.80;4.97;;;17.20;59.60;;;;;;5102932;28;20516;-80
2021/12/30 01:21:53;;;;;;;12.93;3.97;;;17.20;59.50;;;;;;5113169;28;20445;-81
2021/12/30 01:24:20;;;;;;;9.03;4.20;;;17.20;59.40;;;;;;5105595;28;20531;-78
2021/12/30 01:26:48;;;;;;;11.63;3.70;;;17.10;59.40;;;;;;5099802;28;20480;-79
2021/12/30 01:29:18;;;;;;;8.43;4.17;;;17.20;59.40;;;;;;5098286;28;20443;-78
2021/12/30 01:31:46;;;;;;;12.30;3.93;;;17.10;59.40;;;;;;5098281;28;20528;-78
2021/12/30 01:34:22;;;;;;;10.67;3.80;;;17.20;59.30;;;;;;5097969;28;20498;-78
2021/12/30 01:36:49;;;;;;;15.70;4.17;;;17.10;59.30;;;;;;5098161;28;20429;-78
2021/12/30 01:39:19;;;;;;;5.97;3.77;;;17.10;59.40;;;;;;5106239;28;20514;-78
2021/12/30 01:41:48;;;;;;;9.53;3.77;;;17.10;59.40;;;;;;5117922;28;20436;-78
2021/12/30 01:44:20;;;;;;;11.80;4.00;;;17.10;59.20;;;;;;5118532;28;20472;-78
2021/12/30 01:46:48;;;;;;;12.70;4.03;;;17.10;59.40;;;;;;5118335;28;20544;-78
2021/12/30 01:49:16;;;;;;;14.63;4.00;;;17.10;59.30;;;;;;5118069;28;20809;-78
2021/12/30 01:51:46;;;;;;;10.20;3.80;;;17.10;59.30;;;;;;5118015;27;20457;-78
2021/12/30 01:54:14;;;;;;;8.60;3.70;;;17.10;59.90;;;;;;5118138;28;20495;-78
2021/12/30 01:56:42;;;;;;;11.40;3.87;;;17.10;59.30;;;;;;5117485;28;20946;-78
2021/12/30 01:59:10;;;;;;;9.40;3.63;;;17.10;59.30;;;;;;5117686;28;20506;-78
2021/12/30 02:01:45;;;;;;;7.77;3.37;;;17.10;59.30;;;;;;5118072;28;20413;-78
2021/12/30 02:04:13;;;;;;;10.03;3.83;;;17.10;59.30;;;;;;5117789;28;20539;-78
2021/12/30 02:06:41;;;;;;;11.23;3.70;;;17.10;59.30;;;;;;5117948;28;20479;-78
2021/12/30 02:09:19;;;;;;;10.77;4.00;;;17.10;59.40;;;;;;5118181;28;20471;-78
2021/12/30 02:11:48;;;;;;;12.27;3.40;;;17.10;59.20;;;;;;5117970;27;20408;-78
2021/12/30 02:14:16;;;;;;;9.43;3.60;;;17.10;59.20;;;;;;5100364;28;20576;-78
2021/12/30 02:16:44;;;;;;;8.93;3.63;;;17.10;59.30;;;;;;5097352;28;20453;-78
2021/12/30 02:19:12;;;;;;;10.03;3.63;;;17.10;59.30;;;;;;5097304;28;20496;-78
2021/12/30 02:21:42;;;;;;;18.50;3.47;;;17.10;59.30;;;;;;5096943;28;20519;-78
2021/12/30 02:24:09;;;;;;;10.27;4.00;;;17.10;59.30;;;;;;5096816;28;20493;-78
2021/12/30 02:26:38;;;;;;;10.70;3.80;;;17.10;59.40;;;;;;5099465;28;20525;-78
2021/12/30 02:29:05;;;;;;;8.87;3.60;;;17.10;59.40;;;;;;5116760;28;20539;-78
2021/12/30 02:31:34;;;;;;;11.17;3.33;;;17.10;59.30;;;;;;5116305;28;20475;-78
2021/12/30 02:34:01;;;;;;;11.63;4.30;;;17.10;59.30;;;;;;5117057;28;20452;-78
2021/12/30 02:36:31;;;;;;;8.80;3.90;;;17.10;59.30;;;;;;5116922;28;20471;-78
2021/12/30 02:39:03;;;;;;;8.43;3.50;;;17.00;59.30;;;;;;5117614;28;20462;-78
2021/12/30 02:41:33;;;;;;;9.77;3.70;;;17.10;59.30;;;;;;5116875;28;20437;-78
2021/12/30 02:44:02;;;;;;;5.77;3.27;;;17.10;59.30;;;;;;5116944;28;20499;-78
2021/12/30 02:46:30;;;;;;;5.73;3.30;;;17.10;59.30;;;;;;5116293;28;20531;-78
2021/12/30 02:48:58;;;;;;;6.80;3.00;;;17.00;59.90;;;;;;5116786;28;20514;-78
2021/12/30 02:51:26;;;;;;;10.73;3.50;;;17.10;59.30;;;;;;5117532;28;20523;-78
2021/12/30 02:53:54;;;;;;;9.17;3.67;;;17.00;59.40;;;;;;5116563;28;20535;-78
2021/12/30 02:56:24;;;;;;;6.57;2.97;;;17.10;59.30;;;;;;5116733;28;20467;-78
2021/12/30 02:58:52;;;;;;;5.07;3.20;;;17.10;59.30;;;;;;5116792;28;20499;-78
2021/12/30 03:01:21;;;;;;;7.70;3.10;;;17.10;59.20;;;;;;5116061;28;20543;-78
2021/12/30 03:03:50;;;;;;;8.40;3.30;;;17.10;59.30;;;;;;5116007;28;20459;-78
2021/12/30 03:06:17;;;;;;;10.73;3.30;;;17.10;59.40;;;;;;5116560;28;20881;-78
2021/12/30 03:08:46;;;;;;;6.83;2.97;;;17.10;59.20;;;;;;5116656;28;20507;-78
2021/12/30 03:11:14;;;;;;;8.30;3.77;;;17.10;59.30;;;;;;5116376;28;20523;-78
2021/12/30 03:13:44;;;;;;;7.63;3.00;;;17.10;59.30;;;;;;5115722;28;20491;-78
2021/12/30 03:16:14;;;;;;;10.07;3.23;;;17.10;59.20;;;;;;5116494;28;20491;-78
2021/12/30 03:18:43;;;;;;;10.37;3.57;;;17.00;59.40;;;;;;5115976;28;20443;-78
2021/12/30 03:21:14;;;;;;;6.77;3.20;;;17.00;59.30;;;;;;5096254;28;20447;-78
2021/12/30 03:23:42;;;;;;;6.70;3.10;;;17.00;59.30;;;;;;5115910;28;20452;-78
2021/12/30 03:26:10;;;;;;;9.30;3.10;;;17.10;59.30;;;;;;5116133;28;20522;-78
2021/12/30 03:28:39;;;;;;;6.97;2.63;;;17.10;59.30;;;;;;5115880;28;20506;-78
2021/12/30 03:31:08;;;;;;;9.30;3.90;;;17.00;59.20;;;;;;5116047;28;20535;-78
2021/12/30 03:33:36;;;;;;;5.70;2.90;;;17.10;59.40;;;;;;5115007;28;20466;-78
2021/12/30 03:36:04;;;;;;;8.70;3.33;;;17.00;59.30;;;;;;5115068;28;20523;-78
2021/12/30 03:38:34;;;;;;;9.43;3.10;;;17.00;59.40;;;;;;5116305;28;20511;-78
2021/12/30 03:41:04;;;;;;;10.23;3.40;;;17.00;59.40;;;;;;5116389;28;20436;-78
2021/12/30 03:43:31;;;;;;;4.87;2.73;;;17.00;59.30;;;;;;5115862;28;20518;-78
2021/12/30 03:46:00;;;;;;;9.80;2.93;;;17.00;59.30;;;;;;5116896;28;20479;-78
2021/12/30 03:48:33;;;;;;;10.00;3.33;;;17.00;59.30;;;;;;5115204;28;20551;-79
2021/12/30 03:51:05;;;;;;;9.70;3.03;;;17.00;59.30;;;;;;5115898;28;20421;-78
2021/12/30 03:53:37;;;;;;;7.30;3.20;;;17.00;59.40;;;;;;5115893;28;20444;-78
2021/12/30 03:56:05;;;;;;;7.93;3.00;;;17.00;59.70;;;;;;5115865;28;20511;-78
2021/12/30 03:58:33;;;;;;;11.53;3.50;;;17.00;59.40;;;;;;5116092;28;20507;-79
2021/12/30 04:01:02;;;;;;;5.43;2.80;;;17.00;59.40;;;;;;5115783;28;20432;-79
2021/12/30 04:03:31;;;;;;;4.87;2.97;;;17.00;59.50;;;;;;5115586;28;20458;-78
2021/12/30 04:06:00;;;;;;;9.03;2.63;;;17.00;59.40;;;;;;5117912;28;20523;-79
2021/12/30 04:08:27;;;;;;;7.27;2.63;;;17.00;59.40;;;;;;5115682;28;20507;-78
2021/12/30 04:10:56;;;;;;;6.23;2.93;;;17.00;59.40;;;;;;5114950;28;20539;-78
2021/12/30 04:13:24;;;;;;;6.00;3.00;;;17.00;59.40;;;;;;5115254;28;20534;-78
2021/12/30 04:15:53;;;;;;;9.33;3.50;;;17.10;59.40;;;;;;5115416;28;20542;-78
2021/12/30 04:18:21;;;;;;;7.43;3.10;;;17.10;59.40;;;;;;5115780;28;20420;-78
2021/12/30 04:20:50;;;;;;;6.40;2.90;;;17.10;59.40;;;;;;5115864;28;20471;-79
2021/12/30 04:23:18;;;;;;;5.70;2.53;;;17.10;59.40;;;;;;5115654;28;20467;-78
2021/12/30 04:25:46;;;;;;;8.70;3.23;;;17.10;59.20;;;;;;5115136;28;20531;-79
2021/12/30 04:28:14;;;;;;;3.73;2.50;;;17.10;59.20;;;;;;5105997;28;20464;-78
2021/12/30 04:30:42;;;;;;;8.80;2.90;;;17.10;59.20;;;;;;5095463;28;20452;-78
2021/12/30 04:33:10;;;;;;;7.33;2.80;;;17.10;59.20;;;;;;5095088;28;20437;-78
2021/12/30 04:35:38;;;;;;;7.20;3.17;;;17.20;59.30;;;;;;5094622;28;20449;-78
2021/12/30 04:38:08;;;;;;;10.03;3.53;;;17.20;59.30;;;;;;5095184;28;20434;-79
2021/12/30 04:40:36;;;;;;;8.10;3.20;;;17.20;59.80;;;;;;5095055;28;20468;-78
2021/12/30 04:43:04;;;;;;;6.33;2.80;;;17.20;59.20;;;;;;5095238;28;20529;-78
2021/12/30 04:45:32;;;;;;;6.67;3.47;;;17.20;59.20;;;;;;5111762;28;20554;-78
2021/12/30 04:48:00;;;;;;;4.63;2.90;;;17.20;59.20;;;;;;5115262;28;20440;-78
2021/12/30 04:50:28;;;;;;;7.80;3.00;;;17.20;59.30;;;;;;5114995;28;20533;-78
2021/12/30 04:52:56;;;;;;;7.83;3.57;;;17.20;59.20;;;;;;5115549;28;20471;-79
2021/12/30 04:55:26;;;;;;;10.50;3.20;;;17.20;59.20;;;;;;5118482;28;20546;-78
2021/12/30 04:57:55;;;;;;;5.60;2.97;;;17.20;59.20;;;;;;5119316;28;20466;-78
2021/12/30 05:00:23;;;;;;;7.73;3.50;;;17.20;59.10;;;;;;5120348;28;20436;-78
2021/12/30 05:03:08;;;;;;;6.60;3.40;;;17.30;59.10;;;;;;5119958;28;20454;-78
2021/12/30 05:05:40;;;;;;;12.90;3.90;;;17.30;59.20;;;;;;5119273;28;20467;-78
2021/12/30 05:08:08;;;;;;;8.20;2.80;;;17.30;59.20;;;;;;5118751;28;20505;-78
2021/12/30 05:10:38;;;;;;;6.90;2.77;;;17.30;59.20;;;;;;5117720;28;20499;-78
2021/12/30 05:13:06;;;;;;;6.13;2.40;;;17.30;59.10;;;;;;5118273;28;20463;-78
2021/12/30 05:15:34;;;;;;;5.53;3.37;;;17.30;59.30;;;;;;5118080;28;20546;-78
2021/12/30 05:18:02;;;;;;;7.87;3.40;;;17.30;59.20;;;;;;5116364;28;20454;-78
2021/12/30 05:20:31;;;;;;;7.80;3.20;;;17.30;59.10;;;;;;5118645;28;20454;-78
2021/12/30 05:22:59;;;;;;;7.33;3.13;;;17.40;59.20;;;;;;5117787;28;20478;-78
2021/12/30 05:25:27;;;;;;;6.47;2.53;;;17.30;59.10;;;;;;5118248;28;20491;-78
2021/12/30 05:27:57;;;;;;;8.57;3.23;;;17.40;59.20;;;;;;5118107;28;20436;-78
2021/12/30 05:30:25;;;;;;;4.70;3.00;;;17.40;59.10;;;;;;5117838;28;20468;-78
2021/12/30 05:32:53;;;;;;;7.00;2.87;;;17.40;59.20;;;;;;5117735;28;20467;-78
2021/12/30 05:35:22;;;;;;;5.20;3.10;;;17.40;59.20;;;;;;5117598;28;20514;-78
2021/12/30 05:37:50;;;;;;;5.67;3.20;;;17.40;59.00;;;;;;5118119;28;20446;-78
2021/12/30 05:40:19;;;;;;;6.50;2.87;;;17.40;59.10;;;;;;5118081;28;20443;-78
2021/12/30 05:42:47;;;;;;;4.13;2.70;;;17.40;59.20;;;;;;5117951;28;20467;-78
2021/12/30 05:45:17;;;;;;;6.03;2.50;;;17.40;59.10;;;;;;5118325;28;20479;-78
2021/12/30 05:47:46;;;;;;;5.97;2.83;;;17.40;59.20;;;;;;5118829;28;20440;-78
2021/12/30 05:50:15;;;;;;;5.60;2.80;;;17.40;59.10;;;;;;5118270;28;20547;-78
2021/12/30 05:52:44;;;;;;;4.97;3.00;;;17.40;59.10;;;;;;5118222;28;20535;-78
2021/12/30 05:55:13;;;;;;;9.40;3.13;;;17.40;59.10;;;;;;5097654;28;20459;-78
2021/12/30 05:57:41;;;;;;;7.03;2.90;;;17.40;59.30;;;;;;5097485;28;20453;-78
2021/12/30 06:00:10;;;;;;;10.97;3.47;;;17.40;59.10;;;;;;5097251;28;20463;-78
2021/12/30 06:02:40;;;;;;;5.10;2.80;;;17.40;59.30;;;;;;5097495;28;20515;-79
2021/12/30 06:05:09;;;;;;;6.70;2.97;;;17.40;59.20;;;;;;5096852;28;20469;-78
2021/12/30 06:07:37;;;;;;;9.70;3.40;;;17.50;59.20;;;;;;5097946;28;20484;-78
2021/12/30 06:10:06;;;;;;;8.40;3.47;;;17.50;59.20;;;;;;5097169;28;20553;-78
2021/12/30 06:12:34;;;;;;;9.90;3.33;;;17.50;59.20;;;;;;5107869;28;20507;-78
2021/12/30 06:15:02;;;;;;;8.13;3.40;;;17.50;59.20;;;;;;5117539;28;20440;-78
2021/12/30 06:17:30;;;;;;;7.03;3.30;;;17.50;59.20;;;;;;5117624;28;20519;-78
2021/12/30 06:19:59;;;;;;;5.90;3.20;;;17.50;59.20;;;;;;5117628;28;20471;-78
2021/12/30 06:22:27;;;;;;;9.00;3.37;;;17.50;59.20;;;;;;5117494;28;20520;-78
2021/12/30 06:24:55;;;;;;;8.37;3.03;;;17.50;59.20;;;;;;5117827;28;20513;-78
2021/12/30 06:27:23;;;;;;;7.37;2.90;;;17.50;59.10;;;;;;5117575;28;20527;-78
2021/12/30 06:29:51;;;;;;;7.20;3.10;;;17.50;59.10;;;;;;5116660;28;20491;-78
2021/12/30 06:32:19;;;;;;;5.77;2.93;;;17.50;59.20;;;;;;5117549;28;20436;-78
2021/12/30 06:34:47;;;;;;;8.13;3.23;;;17.60;59.20;;;;;;5116970;28;20522;-78
2021/12/30 06:37:16;;;;;;;6.53;2.70;;;17.60;59.10;;;;;;5117424;28;20518;-79
2021/12/30 06:39:44;;;;;;;6.60;2.90;;;17.60;59.20;;;;;;5117243;28;20424;-78
2021/12/30 06:42:12;;;;;;;5.53;2.53;;;17.60;59.20;;;;;;5116684;28;20471;-78
2021/12/30 06:44:40;;;;;;;10.13;3.53;;;17.60;59.20;;;;;;5116962;28;20494;-78
2021/12/30 06:47:08;;;;;;;7.00;3.27;;;17.60;59.20;;;;;;5116857;28;20468;-78
2021/12/30 06:49:37;;;;;;;8.13;2.80;;;17.60;59.20;;;;;;5116615;28;20503;-78
2021/12/30 06:52:05;;;;;;;6.60;2.63;;;17.60;59.10;;;;;;5116671;28;20428;-78
2021/12/30 06:54:35;;;;;;;7.43;3.60;;;17.60;59.20;;;;;;5116775;28;20535;-78
2021/12/30 06:57:03;;;;;;;6.20;2.83;;;17.60;59.20;;;;;;5116388;28;20459;-78
2021/12/30 06:59:31;;;;;;;6.93;3.17;;;17.60;59.20;;;;;;5116555;28;20837;-78
2021/12/30 07:01:59;;;;;;;8.30;3.20;;;17.70;59.30;;;;;;5116568;28;20464;-78
2021/12/30 07:04:27;;;;;;;11.10;3.53;;;17.70;59.20;;;;;;5096564;28;20472;-78
2021/12/30 07:06:56;;;;;;;6.80;3.13;;;17.70;59.30;;;;;;5113051;28;20543;-78
2021/12/30 07:09:24;;;;;;;6.27;3.03;;;17.70;59.20;;;;;;5114235;28;20526;-78
2021/12/30 07:11:54;;;;;;;8.30;3.27;;;17.70;59.30;;;;;;5113668;28;20510;-78
2021/12/30 07:14:23;;;;;;;5.37;2.77;;;17.70;59.30;;;;;;5113660;27;20498;-78
2021/12/30 07:16:51;;;;;;;5.00;2.87;;;17.70;59.20;;;;;;5113610;28;20464;-77
2021/12/30 07:19:19;;;;;;;3.30;2.87;;;17.70;59.30;;;;;;5113821;28;20468;-77
2021/12/30 07:21:50;;;;;;;13.30;3.50;;;17.70;59.30;;;;;;5097342;28;20471;-77
2021/12/30 07:24:20;;;;;;;7.57;3.40;;;17.70;59.30;;;;;;5093170;28;20468;-77
2021/12/30 07:26:48;;;;;;;6.43;3.20;;;17.70;59.20;;;;;;5093207;28;20544;-77
2021/12/30 07:29:18;;;;;;;7.90;3.50;;;17.70;59.30;;;;;;5093353;28;20441;-77
2021/12/30 07:31:46;;;;;;;4.37;2.90;;;17.80;59.50;;;;;;5092901;28;20469;-77
2021/12/30 07:34:14;;;;;;;6.70;3.10;;;17.70;59.40;;;;;;5093083;28;20554;-77
2021/12/30 07:36:42;;;;;;;10.13;3.67;;;17.80;59.30;;;;;;5093167;28;20476;-78
2021/12/30 07:39:10;;;;;;;6.73;3.07;;;17.80;59.30;;;;;;5103520;28;20468;-78
2021/12/30 07:41:38;;;;;;;7.70;3.17;;;17.80;59.20;;;;;;5113642;28;20523;-78
2021/12/30 07:44:06;;;;;;;6.23;3.00;;;17.80;59.20;;;;;;5112867;28;20889;-78
2021/12/30 07:46:35;;;;;;;9.73;3.33;;;17.80;59.30;;;;;;5113108;28;20520;-78
2021/12/30 07:49:05;;;;;;;10.43;3.87;;;17.90;59.40;;;;;;5118938;28;20431;-80
2021/12/30 07:51:33;;;;;;;9.20;3.43;;;17.80;59.30;;;;;;5119693;28;20535;-80
2021/12/30 07:54:01;;;;;;;9.87;4.00;;;17.90;59.40;;;;;;5100569;28;20484;-79
2021/12/30 07:56:29;;;;;;;6.13;3.23;;;17.90;59.40;;;;;;5115628;28;20450;-79
2021/12/30 07:58:59;;;;;;;6.13;3.47;;;17.90;59.40;;;;;;5113743;28;20519;-77
2021/12/30 08:01:27;;;;;;;8.07;3.77;;;17.90;59.30;;;;;;5114950;28;20454;-80
2021/12/30 08:03:56;;;;;;;4.77;3.20;;;17.90;59.30;;;;;;5102222;28;20457;-77
2021/12/30 08:06:27;;;;;;;8.03;3.47;;;17.90;59.40;;;;;;5092653;28;20449;-77
2021/12/30 08:08:54;;;;;;;12.40;3.53;;;17.90;59.40;;;;;;5092969;28;20452;-77
2021/12/30 08:11:22;;;;;;;6.30;3.23;;;17.90;59.30;;;;;;5092206;28;20488;-77
2021/12/30 08:13:50;;;;;;;5.90;3.67;;;18.00;59.50;;;;;;5092255;28;20547;-78
2021/12/30 08:16:18;;;;;;;9.00;3.40;;;18.00;59.40;;;;;;5092652;28;20501;-77
2021/12/30 08:18:46;;;;;;;6.70;3.83;;;18.00;59.30;;;;;;5092541;28;20525;-77
2021/12/30 08:21:16;;;;;;;4.87;2.77;;;18.00;59.30;;;;;;5092479;28;20532;-77
2021/12/30 08:23:44;;;;;;;5.10;3.27;;;18.00;59.40;;;;;;5092658;28;20468;-77
2021/12/30 08:26:12;;;;;;;6.13;3.63;;;18.00;59.50;;;;;;5092341;28;20460;-77
2021/12/30 08:28:40;;;;;;;6.30;3.37;;;18.00;59.20;;;;;;5093269;28;20478;-77
2021/12/30 08:31:08;;;;;;;7.70;4.00;;;18.10;59.40;;;;;;5111116;28;20502;-78
2021/12/30 08:33:36;;;;;;;5.50;3.10;;;18.00;59.40;;;;;;5117296;28;20535;-77
2021/12/30 08:36:04;;;;;;;6.57;3.53;;;18.10;59.30;;;;;;5116813;28;20534;-77
2021/12/30 08:38:34;;;;;;;5.23;3.37;;;18.10;59.40;;;;;;5116823;28;20435;-77
2021/12/30 08:41:02;;;;;;;6.83;3.43;;;18.10;59.20;;;;;;5116837;28;20467;-78
2021/12/30 08:43:30;;;;;;;5.80;3.33;;;18.20;59.40;;;;;;5116597;28;20436;-77
2021/12/30 08:45:58;;;;;;;6.60;3.50;;;18.20;59.40;;;;;;5116772;28;20455;-78
2021/12/30 08:48:59;;;;;;;5.13;3.23;;;18.20;59.30;;;;;;5116465;28;20455;-77
2021/12/30 08:51:27;;;;;;;4.90;3.23;;;18.20;59.40;;;;;;5096151;28;20551;-77
2021/12/30 08:53:56;;;;;;;9.93;3.60;;;18.20;59.20;;;;;;5096203;28;20540;-77
2021/12/30 08:56:24;;;;;;;5.60;3.30;;;18.20;59.30;;;;;;5096164;28;20468;-77
2021/12/30 08:58:52;;;;;;;5.37;2.67;;;18.20;59.90;;;;;;5095942;28;20515;-77
2021/12/30 09:01:20;;;;;;;3.33;2.93;;;18.30;59.30;;;;;;5095930;28;20456;-77
2021/12/30 09:03:48;;;;;;;4.47;3.07;;;18.30;59.40;;;;;;5096217;28;20452;-77
2021/12/30 09:06:16;;;;;;;5.37;2.97;;;18.30;59.20;;;;;;5115188;28;20527;-77
2021/12/30 09:08:44;;;;;;;5.60;3.00;;;18.40;59.30;;;;;;5116281;28;20432;-77
2021/12/30 09:11:16;;;;;;;4.73;2.63;;;18.40;59.30;;;;;;5116511;28;20456;-77
2021/12/30 09:13:44;;;;;;;3.90;2.90;;;18.40;59.20;;;;;;5115799;28;20469;-77
2021/12/30 09:16:13;;;;;;;5.30;3.13;;;18.40;59.20;;;;;;5116213;28;20482;-77
2021/12/30 09:18:42;;;;;;;4.90;2.97;;;18.50;59.30;;;;;;5115706;28;20770;-77
2021/12/30 09:21:10;;;;;;;5.50;3.23;;;18.50;59.40;;;;;;5111236;28;20520;-77
2021/12/30 09:23:38;;;;;;;2.97;2.67;;;18.50;59.20;;;;;;5095414;28;20519;-77
2021/12/30 09:26:06;;;;;;;4.40;2.97;;;18.50;59.10;;;;;;5095548;28;20472;-77
2021/12/30 09:28:35;;;;;;;3.87;2.60;;;18.50;59.10;;;;;;5095236;28;20520;-77
2021/12/30 09:31:03;;;;;;;4.70;3.10;;;18.60;59.20;;;;;;5095273;28;20498;-77
2021/12/30 09:33:31;;;;;;;6.20;3.03;;;18.60;59.20;;;;;;5095107;28;20478;-77
2021/12/30 09:36:01;;;;;;;5.40;2.73;;;18.60;59.30;;;;;;5095166;28;20440;-77
2021/12/30 09:38:29;;;;;;;3.17;2.80;;;18.60;59.20;;;;;;5097597;28;20455;-77
2021/12/30 09:40:57;;;;;;;5.07;3.23;;;18.60;59.20;;;;;;5114325;28;20431;-77
2021/12/30 09:43:25;;;;;;;6.40;3.13;;;18.60;59.20;;;;;;5115624;27;20467;-77
2021/12/30 09:45:55;;;;;;;5.20;2.50;;;18.60;59.20;;;;;;5115544;28;20515;-77
2021/12/30 09:48:23;;;;;;;3.90;2.80;;;18.70;59.30;;;;;;5115459;28;20443;-77
2021/12/30 09:50:52;;;;;;;3.20;2.60;;;18.60;59.10;;;;;;5115542;28;20602;-77
2021/12/30 09:53:21;;;;;;;4.50;3.00;;;18.70;59.30;;;;;;5115505;28;20543;-77
2021/12/30 09:55:50;;;;;;;5.00;3.03;;;18.70;59.30;;;;;;5115428;28;20455;-77
2021/12/30 09:58:18;;;;;;;4.73;2.77;;;18.70;59.30;;;;;;5115362;28;20536;-77
2021/12/30 10:00:46;;;;;;;4.80;2.60;;;18.70;59.30;;;;;;5115148;28;20451;-77
2021/12/30 10:03:16;;;;;;;2.63;2.10;;;18.70;59.30;;;;;;5115332;28;20428;-77
2021/12/30 10:05:43;;;;;;;2.70;2.17;;;18.70;59.30;;;;;;5115218;28;20462;-77
2021/12/30 10:08:14;;;;;;;2.60;2.40;;;18.80;59.40;;;;;;5115249;28;20467;-77
2021/12/30 10:10:43;;;;;;;2.20;2.00;;;18.80;59.40;;;;;;5114904;28;20918;-80
2021/12/30 10:13:25;;;;;;;3.10;1.80;;;18.80;59.30;;;;;;5117924;28;20472;-80
2021/12/30 10:15:54;;;;;;;2.40;1.97;;;18.80;59.30;;;;;;5114919;28;20515;-78
2021/12/30 10:18:24;;;;;;;3.53;2.00;;;18.80;59.20;;;;;;5114309;28;20495;-78
2021/12/30 10:20:52;;;;;;;2.37;2.27;;;18.80;59.30;;;;;;5113998;28;20478;-78
2021/12/30 10:23:22;;;;;;;2.37;2.03;;;18.80;59.30;;;;;;5112823;28;20434;-78
2021/12/30 10:25:51;;;;;;;1.97;1.83;;;18.90;59.30;;;;;;5116695;28;20455;-78
2021/12/30 10:28:21;;;;;;;2.43;2.23;;;18.90;59.40;;;;;;5116822;28;20443;-78
2021/12/30 10:30:49;;;;;;;3.07;2.30;;;18.90;59.40;;;;;;5116287;28;20539;-78
2021/12/30 10:33:19;;;;;;;3.07;2.10;;;18.90;59.40;;;;;;5110375;28;20547;-77
2021/12/30 10:35:49;;;;;;;1.90;1.80;;;18.90;59.30;;;;;;5118317;28;20483;-80
2021/12/30 10:38:17;;;;;;;2.40;2.20;;;18.90;59.30;;;;;;5118973;28;20462;-80
2021/12/30 10:40:46;;;;;;;2.10;1.90;;;18.90;59.30;;;;;;5116868;28;20538;-78
2021/12/30 10:43:28;;;;;;;2.23;1.73;;;19.00;59.40;;;;;;5116321;28;20459;-78
2021/12/30 10:46:11;;;;;;;2.20;1.73;;;19.00;59.50;;;;;;5116202;28;20518;-78
2021/12/30 10:48:54;;;;;;;1.70;1.50;;;19.00;59.50;;;;;;5116138;28;20447;-78
2021/12/30 10:51:25;;;;;;;1.80;1.70;;;19.00;59.60;;;;;;5115342;28;20981;-78
2021/12/30 10:53:54;;;;;;;1.70;1.60;;;19.00;59.60;;;;;;5116088;28;20500;-78
2021/12/30 10:56:24;;;;;;;4.30;1.80;;;19.00;59.60;;;;;;5116385;28;20511;-78
2021/12/30 10:58:54;;;;;;;1.97;1.60;;;19.00;59.60;;;;;;5103520;28;20465;-78
2021/12/30 11:01:24;;;;;;;3.00;1.60;;;19.10;60.40;;;;;;5104909;28;20447;-78
2021/12/30 11:03:55;;;;;;;1.63;1.53;;;19.10;59.80;;;;;;5116434;28;20490;-78
2021/12/30 11:06:24;;;;;;;1.50;1.37;;;19.10;59.80;;;;;;5108334;28;20433;-78
2021/12/30 11:09:08;;;;;;;1.20;1.20;;;19.10;59.90;;;;;;5097555;28;20471;-78
2021/12/30 11:11:36;;;;;;;2.10;1.27;;;19.10;60.00;;;;;;5116112;28;20522;-78
2021/12/30 11:14:05;;;;;;;1.50;1.40;;;19.10;60.10;;;;;;5116374;28;20476;-78
2021/12/30 11:16:33;;;;;;;1.33;1.23;;;19.10;60.20;;;;;;5110496;28;20516;-78
2021/12/30 11:19:02;;;;;;;1.20;1.10;;;19.10;60.30;;;;;;5111981;28;20523;-78
2021/12/30 11:21:41;;;;;;;1.30;1.20;;;19.10;60.20;;;;;;5106869;28;20499;-78
2021/12/30 11:24:09;;;;;;;1.33;0.90;;;19.20;60.50;;;;;;5104688;28;20560;-78
2021/12/30 11:26:38;;;;;;;2.70;1.10;;;19.20;60.40;;;;;;5105536;28;20501;-78
2021/12/30 11:29:06;;;;;;;1.20;1.10;;;19.20;60.40;;;;;;5103392;28;20433;-78
2021/12/30 11:31:34;;;;;;;1.83;1.00;;;19.20;60.50;;;;;;5107294;28;20511;-78
2021/12/30 11:34:03;;;;;;;1.20;1.10;;;19.20;60.70;;;;;;5095266;28;20511;-78
2021/12/30 11:36:30;;;;;;;0.90;0.90;;;19.20;60.60;;;;;;5105301;28;20440;-78
2021/12/30 11:39:03;;;;;;;0.93;0.93;;;19.20;60.80;;;;;;5107099;28;20467;-78
2021/12/30 11:41:32;;;;;;;1.57;1.00;;;19.20;60.90;;;;;;5107330;28;20953;-78
2021/12/30 11:44:00;;;;;;;0.97;0.97;;;19.20;60.90;;;;;;5103862;28;20480;-78
2021/12/30 11:46:39;;;;;;;1.20;1.10;;;19.20;60.90;;;;;;5106298;28;20432;-78
2021/12/30 11:49:07;;;;;;;1.20;1.00;;;19.30;61.10;;;;;;5108653;28;20497;-78
2021/12/30 11:51:42;;;;;;;1.17;1.07;;;19.20;61.10;;;;;;5105685;28;20534;-78
2021/12/30 11:54:34;;;;;;;1.20;1.10;;;19.20;61.20;;;;;;5101643;28;20475;-78
2021/12/30 11:57:27;;;;;;;1.07;1.07;;;19.30;61.30;;;;;;5102520;28;20417;-78
2021/12/30 11:59:55;;;;;;;1.33;1.10;;;19.30;61.40;;;;;;5105340;28;20511;-78
2021/12/30 12:02:33;;;;;;;1.30;1.20;;;19.30;61.40;;;;;;5105766;28;20508;-78
2021/12/30 12:05:50;;;;;;;1.23;1.20;;;19.30;61.50;;;;;;5094184;28;20447;-78
2021/12/30 12:08:17;;;;;;;1.03;1.00;;;19.30;61.60;;;;;;5102655;28;20430;-78
2021/12/30 12:11:10;;;;;;;1.10;1.10;;;19.30;61.70;;;;;;5105495;28;20522;-77
2021/12/30 12:13:38;;;;;;;1.10;1.00;;;19.30;61.70;;;;;;5092430;28;20559;-77
2021/12/30 12:16:06;;;;;;;1.37;1.27;;;19.30;61.70;;;;;;5102908;28;20520;-77
2021/12/30 12:18:34;;;;;;;1.00;1.00;;;19.30;61.80;;;;;;5108579;28;20471;-77
2021/12/30 12:21:03;;;;;;;0.90;0.90;;;19.30;61.70;;;;;;5092372;28;20476;-77
2021/12/30 12:23:35;;;;;;;1.20;1.10;;;19.30;61.90;;;;;;5095936;28;20456;-79
2021/12/30 12:26:08;;;;;;;1.10;1.10;;;19.40;62.00;;;;;;5101647;28;20423;-77
2021/12/30 12:28:37;;;;;;;1.80;0.90;;;19.40;62.30;;;;;;5103874;28;20412;-77
2021/12/30 12:31:06;;;;;;;1.83;1.00;;;19.40;61.80;;;;;;5109133;28;20489;-80
2021/12/30 12:33:36;;;;;;;0.90;0.90;;;19.40;61.90;;;;;;5105465;28;20472;-79
2021/12/30 12:36:18;;;;;;;1.47;1.00;;;19.40;61.90;;;;;;5105375;28;20446;-80
2021/12/30 12:38:47;;;;;;;0.97;0.97;;;19.40;62.00;;;;;;5104958;28;20417;-80
2021/12/30 12:41:21;;;;;;;1.10;0.90;;;19.40;61.80;;;;;;5105017;28;20460;-80
2021/12/30 12:43:56;;;;;;;1.13;0.80;;;19.40;61.90;;;;;;5114675;28;20449;-80
2021/12/30 12:46:41;;;;;;;0.93;0.80;;;19.40;61.90;;;;;;5108581;28;20473;-81
2021/12/30 12:49:10;;;;;;;0.97;0.97;;;19.40;62.00;;;;;;5113557;28;20424;-80
2021/12/30 12:51:41;;;;;;;1.00;1.00;;;19.40;62.00;;;;;;5120003;28;20466;-80
2021/12/30 12:54:09;;;;;;;1.00;1.00;;;19.40;61.90;;;;;;5120153;28;20508;-80
2021/12/30 12:56:39;;;;;;;0.87;0.87;;;19.40;62.00;;;;;;5114385;28;20439;-79
2021/12/30 12:59:10;;;;;;;0.93;0.93;;;19.50;62.00;;;;;;5111022;28;20440;-78